createdAt,value
2019-01-24T00:02:17.191Z,51.23
2019-01-24T00:04:47.798Z,54.00
2019-01-24T00:07:18.466Z,51.13
2019-01-24T00:09:49.029Z,48.27
2019-01-24T00:12:19.542Z,49.20
2019-01-24T00:14:50.018Z,50.03
2019-01-24T00:17:20.477Z,47.60
2019-01-24T00:19:51.101Z,48.67
2019-01-24T00:22:21.640Z,50.87
2019-01-24T00:24:52.161Z,47.93
2019-01-24T00:27:22.629Z,49.60
2019-01-24T00:29:53.304Z,47.83
2019-01-24T00:32:23.758Z,46.67
2019-01-24T00:34:54.150Z,50.67
2019-01-24T00:37:24.711Z,50.57
2019-01-24T00:39:55.260Z,47.33
2019-01-24T00:42:26.068Z,50.13
2019-01-24T00:44:56.939Z,47.10
2019-01-24T00:47:27.687Z,49.03
2019-01-24T00:49:58.478Z,47.07
2019-01-24T00:52:28.931Z,50.67
2019-01-24T00:54:59.483Z,47.83
2019-01-24T00:57:29.919Z,48.80
2019-01-24T01:00:00.378Z,48.47
2019-01-24T01:02:31.043Z,47.63
2019-01-24T01:05:01.474Z,49.37
2019-01-24T01:07:32.155Z,46.87
2019-01-24T01:10:04.302Z,51.33
2019-01-24T01:12:36.204Z,49.57
2019-01-24T01:15:11.742Z,49.03
2019-01-24T01:17:46.761Z,55.30
2019-01-24T01:20:24.188Z,47.40
2019-01-24T01:22:55.011Z,49.53
2019-01-24T01:25:25.857Z,52.03
2019-01-24T01:28:04.685Z,51.47
2019-01-24T01:30:35.224Z,52.60
2019-01-24T01:33:05.901Z,51.67
2019-01-24T01:35:36.436Z,52.57
2019-01-24T01:38:06.809Z,48.83
2019-01-24T01:40:37.249Z,48.27
2019-01-24T01:43:08.197Z,50.30
2019-01-24T01:45:38.853Z,49.03
2019-01-24T01:48:09.344Z,49.30
2019-01-24T01:50:39.691Z,51.83
2019-01-24T01:53:10.393Z,50.70
2019-01-24T01:55:40.877Z,54.47
2019-01-24T01:58:11.334Z,56.00
2019-01-24T02:00:42.443Z,53.30
2019-01-24T02:03:13.231Z,53.80
2019-01-24T02:05:43.735Z,52.77
2019-01-24T02:08:14.294Z,51.43
2019-01-24T02:10:44.661Z,54.60
2019-01-24T02:13:15.377Z,48.63
2019-01-24T02:15:45.943Z,52.17
2019-01-24T02:18:16.633Z,54.43
2019-01-24T02:20:46.979Z,55.77
2019-01-24T02:23:17.523Z,57.00
2019-01-24T02:25:48.167Z,52.60
2019-01-24T02:28:18.744Z,53.63
2019-01-24T02:30:49.314Z,49.07
2019-01-24T02:33:20.115Z,54.57
2019-01-24T02:35:50.879Z,57.10
2019-01-24T02:38:21.480Z,57.57
2019-01-24T02:40:51.870Z,50.63
2019-01-24T02:43:22.409Z,57.63
2019-01-24T02:45:52.730Z,56.33
2019-01-24T02:48:23.171Z,56.17
2019-01-24T02:50:53.893Z,51.53
2019-01-24T02:53:24.528Z,44.40
2019-01-24T02:55:55.157Z,49.23
2019-01-24T02:58:25.956Z,60.37
2019-01-24T03:00:56.424Z,55.20
2019-01-24T03:03:27.475Z,58.10
2019-01-24T03:05:57.842Z,53.80
2019-01-24T03:08:28.184Z,54.87
2019-01-24T03:10:58.793Z,56.17
2019-01-24T03:13:29.108Z,56.87
2019-01-24T03:16:00.412Z,54.03
2019-01-24T03:18:30.843Z,50.57
2019-01-24T03:21:01.282Z,54.37
2019-01-24T03:23:31.657Z,55.00
2019-01-24T03:26:02.242Z,53.50
2019-01-24T03:28:32.553Z,52.17
2019-01-24T03:31:03.158Z,55.87
2019-01-24T03:33:33.926Z,54.23
2019-01-24T03:36:04.449Z,56.00
2019-01-24T03:38:35.018Z,53.97
2019-01-24T03:41:05.736Z,47.77
2019-01-24T03:43:36.379Z,56.17
2019-01-24T03:46:06.914Z,48.87
2019-01-24T03:48:37.632Z,49.80
2019-01-24T03:51:08.201Z,50.00
2019-01-24T03:53:38.655Z,54.07
2019-01-24T03:56:09.332Z,38.53
2019-01-24T03:58:39.838Z,50.33
2019-01-24T04:01:10.461Z,45.40
2019-01-24T04:03:41.310Z,48.20
2019-01-24T04:06:11.768Z,47.80
2019-01-24T04:08:42.545Z,46.23
2019-01-24T04:11:13.148Z,38.87
2019-01-24T04:13:43.579Z,45.43
2019-01-24T04:16:14.290Z,49.50
2019-01-24T04:18:44.835Z,45.67
2019-01-24T04:21:15.563Z,46.63
2019-01-24T04:23:46.115Z,49.30
2019-01-24T04:26:16.560Z,41.50
2019-01-24T04:28:47.046Z,37.90
2019-01-24T04:31:17.554Z,42.57
2019-01-24T04:33:48.289Z,32.27
2019-01-24T04:36:18.999Z,48.07
2019-01-24T04:38:49.706Z,35.10
2019-01-24T04:41:20.313Z,46.73
2019-01-24T04:43:51.047Z,40.20
2019-01-24T04:46:21.448Z,38.73
2019-01-24T04:48:52.184Z,40.67
2019-01-24T04:51:22.683Z,41.37
2019-01-24T04:53:53.538Z,39.47
2019-01-24T04:56:23.953Z,34.83
2019-01-24T04:58:54.443Z,38.70
2019-01-24T05:01:25.128Z,43.73
2019-01-24T05:03:55.669Z,38.27
2019-01-24T05:06:26.184Z,39.43
2019-01-24T05:08:56.975Z,39.47
2019-01-24T05:11:27.690Z,42.40
2019-01-24T05:13:58.263Z,42.13
2019-01-24T05:16:28.887Z,43.73
2019-01-24T05:18:59.246Z,41.20
2019-01-24T05:21:29.639Z,39.00
2019-01-24T05:24:00.378Z,41.57
2019-01-24T05:26:31.046Z,34.27
2019-01-24T05:29:01.931Z,41.03
2019-01-24T05:31:32.289Z,42.00
2019-01-24T05:34:02.662Z,40.60
2019-01-24T05:36:33.446Z,40.50
2019-01-24T05:39:05.445Z,34.93
2019-01-24T05:41:36.055Z,34.97
2019-01-24T05:44:06.461Z,58.40
2019-01-24T05:46:36.939Z,47.33
2019-01-24T05:49:07.729Z,41.83
2019-01-24T05:51:38.218Z,38.40
2019-01-24T05:54:08.653Z,38.00
2019-01-24T05:56:39.073Z,37.57
2019-01-24T05:59:09.604Z,39.17
2019-01-24T06:01:40.819Z,36.33
2019-01-24T06:04:12.285Z,38.87
2019-01-24T06:06:42.664Z,38.03
2019-01-24T06:09:13.240Z,41.00
2019-01-24T06:11:43.738Z,27.23
2019-01-24T06:14:14.540Z,34.50
2019-01-24T06:16:45.208Z,37.37
2019-01-24T06:19:15.941Z,36.00
2019-01-24T06:21:46.436Z,35.13
2019-01-24T06:24:17.085Z,39.90
2019-01-24T06:26:47.838Z,34.70
2019-01-24T06:29:19.661Z,38.80
2019-01-24T06:31:50.525Z,31.73
2019-01-24T06:34:21.471Z,38.60
2019-01-24T06:36:52.015Z,34.00
2019-01-24T06:39:22.663Z,38.53
2019-01-24T06:41:53.346Z,32.40
2019-01-24T06:44:24.211Z,38.20
2019-01-24T06:46:55.541Z,37.47
2019-01-24T06:49:26.133Z,39.67
2019-01-24T06:51:56.749Z,29.80
2019-01-24T06:54:27.891Z,33.67
2019-01-24T06:56:58.884Z,34.87
2019-01-24T06:59:29.780Z,38.13
2019-01-24T07:02:01.981Z,37.40
2019-01-24T07:04:33.042Z,38.23
2019-01-24T07:07:03.891Z,35.20
2019-01-24T07:09:34.497Z,37.07
2019-01-24T07:12:06.984Z,38.77
2019-01-24T07:14:37.600Z,39.40
2019-01-24T07:17:09.782Z,38.00
2019-01-24T07:19:40.699Z,38.97
2019-01-24T07:22:12.947Z,40.37
2019-01-24T07:24:46.458Z,38.50
2019-01-24T07:27:17.821Z,39.80
2019-01-24T07:29:48.486Z,42.33
2019-01-24T07:32:19.209Z,39.30
2019-01-24T07:34:49.921Z,40.73
2019-01-24T07:37:21.389Z,32.47
2019-01-24T07:39:51.976Z,36.27
2019-01-24T07:42:23.215Z,36.57
2019-01-24T07:44:55.247Z,40.23
2019-01-24T07:47:26.292Z,39.57
2019-01-24T07:49:57.489Z,38.40
2019-01-24T07:52:28.087Z,39.10
2019-01-24T07:54:59.190Z,39.70
2019-01-24T07:57:29.801Z,42.83
2019-01-24T08:00:00.698Z,40.80
2019-01-24T08:02:31.661Z,38.43
2019-01-24T08:05:05.631Z,39.50
2019-01-24T08:07:39.864Z,38.20
2019-01-24T08:10:13.942Z,42.73
2019-01-24T08:12:45.191Z,41.57
2019-01-24T08:15:17.459Z,44.33
2019-01-24T08:17:48.376Z,41.50
2019-01-24T08:20:21.321Z,41.23
2019-01-24T08:22:52.428Z,43.27
2019-01-24T08:25:24.393Z,43.63
2019-01-24T08:28:31.821Z,45.17
2019-01-24T08:31:03.127Z,48.47
2019-01-24T08:33:36.135Z,46.50
2019-01-24T08:36:07.540Z,43.13
2019-01-24T08:38:38.427Z,48.43
2019-01-24T08:41:13.187Z,50.13
2019-01-24T08:43:43.741Z,44.37
2019-01-24T08:46:14.612Z,47.37
2019-01-24T08:48:48.362Z,46.43
2019-01-24T08:51:19.047Z,48.93
2019-01-24T08:53:49.722Z,48.03
2019-01-24T08:56:20.626Z,48.50
2019-01-24T08:58:51.322Z,51.47
2019-01-24T09:01:22.495Z,44.87
2019-01-24T09:03:53.447Z,47.47
2019-01-24T09:06:25.256Z,47.83
2019-01-24T09:08:59.197Z,45.27
2019-01-24T09:11:30.482Z,49.23
2019-01-24T09:14:02.233Z,47.03
2019-01-24T09:16:36.021Z,48.30
2019-01-24T09:19:08.947Z,47.43
2019-01-24T09:21:42.596Z,45.20
2019-01-24T09:24:14.602Z,47.70
2019-01-24T09:26:45.791Z,46.10
2019-01-24T09:29:16.415Z,46.20
2019-01-24T09:31:47.402Z,46.63
2019-01-24T09:34:18.114Z,48.03
2019-01-24T09:36:50.586Z,49.73
2019-01-24T09:39:21.256Z,51.30
2019-01-24T09:41:53.312Z,48.20
2019-01-24T09:44:25.493Z,49.47
2019-01-24T09:46:57.547Z,45.80
2019-01-24T09:49:28.942Z,45.47
2019-01-24T09:52:01.245Z,45.53
2019-01-24T09:54:32.202Z,45.70
2019-01-24T09:57:03.289Z,44.33
2019-01-24T09:59:37.507Z,43.93
2019-01-24T10:02:11.497Z,43.70
2019-01-24T10:04:42.807Z,46.33
2019-01-24T10:07:18.031Z,45.47
2019-01-24T10:09:51.146Z,46.47
2019-01-24T10:12:25.101Z,47.00
2019-01-24T10:14:58.931Z,44.67
2019-01-24T10:17:30.418Z,44.80
2019-01-24T10:20:01.818Z,44.93
2019-01-24T10:22:35.318Z,43.07
2019-01-24T10:25:12.567Z,47.37
2019-01-24T10:27:49.406Z,43.80
2019-01-24T10:30:18.952Z,42.47
2019-01-24T10:32:57.471Z,45.97
2019-01-24T10:35:28.381Z,44.97
2019-01-24T10:37:59.422Z,43.57
2019-01-24T10:40:31.507Z,43.17
2019-01-24T10:43:05.233Z,45.17
2019-01-24T10:45:36.032Z,44.33
2019-01-24T10:48:10.257Z,44.87
2019-01-24T10:50:43.614Z,46.37
2019-01-24T10:53:14.732Z,46.17
2019-01-24T10:55:46.093Z,47.53
2019-01-24T10:58:19.992Z,48.27
2019-01-24T11:00:56.462Z,45.77
2019-01-24T11:03:30.041Z,44.33
2019-01-24T11:06:07.026Z,46.83
2019-01-24T11:08:51.235Z,46.70
2019-01-24T11:11:30.768Z,47.43
2019-01-24T11:14:02.392Z,48.80
2019-01-24T11:16:35.902Z,49.03
2019-01-24T11:19:07.128Z,47.00
2019-01-24T11:21:39.138Z,46.27
2019-01-24T11:24:15.952Z,45.47
2019-01-24T11:26:51.379Z,44.23
2019-01-24T11:29:22.278Z,47.37
2019-01-24T11:31:55.031Z,44.17
2019-01-24T11:34:26.198Z,41.30
2019-01-24T11:36:57.478Z,41.93
2019-01-24T11:39:35.409Z,39.70
2019-01-24T11:42:06.582Z,40.53
2019-01-24T11:44:39.764Z,44.93
2019-01-24T11:47:10.581Z,41.07
2019-01-24T11:49:42.322Z,40.47
2019-01-24T11:52:15.768Z,41.23
2019-01-24T11:54:46.863Z,38.63
2019-01-24T11:57:17.917Z,40.33
2019-01-24T11:59:51.332Z,40.10
2019-01-24T12:02:25.090Z,39.57
2019-01-24T12:04:59.188Z,44.07
2019-01-24T12:07:33.552Z,40.83
2019-01-24T12:10:05.064Z,40.43
2019-01-24T12:12:36.034Z,41.63
2019-01-24T12:15:09.838Z,39.83
2019-01-24T12:17:42.437Z,41.43
2019-01-24T12:20:16.507Z,43.90
2019-01-24T12:22:47.330Z,40.87
2019-01-24T12:25:18.694Z,39.83
2019-01-24T12:27:50.082Z,41.27
2019-01-24T12:30:39.499Z,38.23
2019-01-24T12:33:10.794Z,40.07
2019-01-24T12:35:44.389Z,41.67
2019-01-24T12:38:19.739Z,40.20
2019-01-24T12:40:52.971Z,40.10
2019-01-24T12:43:35.003Z,43.77
2019-01-24T12:46:09.309Z,44.00
2019-01-24T12:48:42.083Z,42.43
2019-01-24T12:51:13.333Z,45.70
2019-01-24T12:53:47.425Z,43.40
2019-01-24T12:56:22.190Z,42.87
2019-01-24T12:58:54.532Z,44.27
2019-01-24T13:01:25.576Z,43.07
2019-01-24T13:03:56.994Z,42.97
2019-01-24T13:06:30.843Z,44.20
2019-01-24T13:09:01.890Z,43.47
2019-01-24T13:11:33.797Z,42.03
2019-01-24T13:14:06.004Z,48.07
2019-01-24T13:16:38.384Z,46.13
2019-01-24T13:19:09.222Z,42.07
2019-01-24T13:21:42.145Z,42.97
2019-01-24T13:24:13.608Z,43.03
2019-01-24T13:26:44.548Z,44.10
2019-01-24T13:29:21.694Z,45.37
2019-01-24T13:31:52.977Z,43.77
2019-01-24T13:34:23.543Z,44.27
2019-01-24T13:36:54.530Z,45.27
2019-01-24T13:39:30.387Z,46.17
2019-01-24T13:42:04.734Z,44.17
2019-01-24T13:44:37.480Z,44.07
2019-01-24T13:47:10.319Z,44.70
2019-01-24T13:49:41.639Z,41.80
2019-01-24T13:52:14.429Z,45.80
2019-01-24T13:54:45.223Z,43.93
2019-01-24T13:57:18.683Z,47.43
2019-01-24T13:59:52.699Z,45.13
2019-01-24T14:02:28.898Z,43.47
2019-01-24T14:05:14.189Z,44.83
2019-01-24T14:07:45.306Z,43.80
2019-01-24T14:10:23.614Z,45.63
2019-01-24T14:15:45.388Z,44.33
2019-01-24T14:18:16.245Z,46.50
2019-01-24T14:20:47.587Z,41.63
2019-01-24T14:23:21.343Z,44.90
2019-01-24T14:25:52.793Z,44.60
2019-01-24T14:28:23.819Z,43.17
2019-01-24T14:30:54.968Z,42.93
2019-01-24T14:33:25.731Z,44.73
2019-01-24T14:35:57.769Z,43.83
2019-01-24T14:38:33.285Z,45.27
2019-01-24T14:41:08.168Z,48.57
2019-01-24T14:43:40.640Z,45.00
2019-01-24T14:46:13.713Z,42.13
2019-01-24T14:48:52.911Z,42.00
2019-01-24T14:51:25.994Z,44.93
2019-01-24T14:53:57.204Z,44.90
2019-01-24T14:56:28.418Z,45.60
2019-01-24T14:58:59.484Z,47.03
2019-01-24T15:01:30.965Z,47.40
2019-01-24T15:04:02.331Z,49.80
2019-01-24T15:06:34.002Z,48.30
2019-01-24T15:09:11.522Z,51.80
2019-01-24T15:11:45.090Z,46.50
2019-01-24T15:14:16.446Z,46.80
2019-01-24T15:16:47.996Z,52.57
2019-01-24T15:19:19.990Z,49.93
2019-01-24T15:21:51.975Z,48.03
2019-01-24T15:24:28.554Z,49.30
2019-01-24T15:27:01.414Z,49.93
2019-01-24T15:29:32.361Z,45.47
2019-01-24T15:32:06.362Z,48.93
2019-01-24T15:34:42.985Z,46.97
2019-01-24T15:37:18.429Z,44.53
2019-01-24T15:39:49.449Z,46.20
2019-01-24T15:42:23.691Z,47.73
2019-01-24T15:44:57.994Z,44.57
2019-01-24T15:47:29.130Z,43.43
2019-01-24T15:50:03.571Z,45.13
2019-01-24T15:52:34.710Z,44.53
2019-01-24T15:55:06.174Z,44.47
2019-01-24T15:57:37.175Z,46.90
2019-01-24T16:00:11.857Z,45.57
2019-01-24T16:02:52.271Z,48.07
2019-01-24T16:05:25.281Z,45.03
2019-01-24T16:08:01.627Z,46.07
2019-01-24T16:10:29.067Z,47.87
2019-01-24T16:13:00.137Z,43.90
2019-01-24T16:15:33.010Z,46.57
2019-01-24T16:18:04.726Z,47.27
2019-01-24T16:20:35.926Z,45.77
2019-01-24T16:23:07.050Z,44.27
2019-01-24T16:25:39.470Z,45.90
2019-01-24T16:28:10.128Z,45.90
2019-01-24T16:30:42.203Z,44.53
2019-01-24T16:33:12.927Z,48.53
2019-01-24T16:35:43.941Z,44.07
2019-01-24T16:38:14.799Z,46.00
2019-01-24T16:40:45.748Z,47.83
2019-01-24T16:43:16.509Z,49.07
2019-01-24T16:45:47.470Z,47.97
2019-01-24T16:48:18.632Z,46.73
2019-01-24T16:50:49.634Z,45.83
2019-01-24T16:53:20.551Z,46.37
2019-01-24T16:55:51.243Z,47.63
2019-01-24T16:58:22.901Z,47.20
2019-01-24T17:01:15.100Z,47.00
2019-01-24T17:03:45.920Z,42.20
2019-01-24T17:06:16.868Z,42.77
2019-01-24T17:08:48.717Z,43.30
2019-01-24T17:11:19.431Z,45.87
2019-01-24T17:13:50.165Z,43.70
2019-01-24T17:16:22.117Z,44.80
2019-01-24T17:18:52.966Z,43.67
2019-01-24T17:21:24.835Z,45.83
2019-01-24T17:23:56.011Z,42.43
2019-01-24T17:26:26.621Z,42.97
2019-01-24T17:28:57.126Z,45.43
2019-01-24T17:31:28.237Z,44.27
2019-01-24T17:33:59.661Z,44.57
2019-01-24T17:36:33.240Z,42.53
2019-01-24T17:39:05.580Z,45.50
2019-01-24T17:41:36.271Z,44.70
2019-01-24T17:44:06.802Z,44.13
2019-01-24T17:46:37.589Z,45.67
2019-01-24T17:49:08.662Z,43.47
2019-01-24T17:51:39.353Z,44.03
2019-01-24T17:54:11.202Z,47.90
2019-01-24T17:56:42.005Z,45.53
2019-01-24T17:59:14.297Z,49.67
2019-01-24T18:01:46.343Z,46.27
2019-01-24T18:04:21.661Z,46.80
2019-01-24T18:06:51.743Z,49.90
2019-01-24T18:09:23.730Z,50.27
2019-01-24T18:11:54.576Z,53.23
2019-01-24T18:14:26.274Z,50.17
2019-01-24T18:16:56.941Z,51.17
2019-01-24T18:19:28.216Z,51.63
2019-01-24T18:21:58.946Z,54.97
2019-01-24T18:24:29.801Z,55.23
2019-01-24T18:27:00.362Z,51.33
2019-01-24T18:29:31.944Z,49.03
2019-01-24T18:32:02.933Z,56.73
2019-01-24T18:34:34.057Z,55.43
2019-01-24T18:37:05.219Z,52.67
2019-01-24T18:39:37.967Z,48.77
2019-01-24T18:42:09.872Z,50.73
2019-01-24T18:44:41.233Z,54.93
2019-01-24T18:47:14.095Z,50.53
2019-01-24T18:49:49.856Z,54.00
2019-01-24T18:52:22.001Z,50.43
2019-01-24T18:54:52.781Z,56.33
2019-01-24T18:57:24.725Z,53.93
2019-01-24T18:59:56.779Z,55.33
2019-01-24T19:02:27.866Z,56.27
2019-01-24T19:05:00.991Z,51.27
2019-01-24T19:07:31.708Z,52.27
2019-01-24T19:10:06.376Z,49.43
2019-01-24T19:12:37.425Z,55.63
2019-01-24T19:15:12.046Z,51.37
2019-01-24T19:17:45.313Z,52.67
2019-01-24T19:20:18.201Z,54.37
2019-01-24T19:22:49.187Z,59.00
2019-01-24T19:25:20.917Z,56.23
2019-01-24T19:27:53.817Z,51.77
2019-01-24T19:30:29.275Z,57.03
2019-01-24T19:33:00.474Z,55.93
2019-01-24T19:35:31.489Z,56.57
2019-01-24T19:38:02.555Z,59.03
2019-01-24T19:40:33.974Z,58.77
2019-01-24T19:43:05.344Z,58.50
2019-01-24T19:45:36.252Z,56.63
2019-01-24T19:48:07.517Z,57.83
2019-01-24T19:51:01.422Z,57.63
2019-01-24T19:53:33.521Z,57.40
2019-01-24T19:56:04.719Z,58.77
2019-01-24T19:58:36.852Z,56.90
2019-01-24T20:01:07.949Z,57.77
2019-01-24T20:03:39.164Z,59.60
2019-01-24T20:06:10.396Z,55.73
2019-01-24T20:08:42.278Z,59.13
2019-01-24T20:11:13.092Z,54.73
2019-01-24T20:13:43.966Z,59.00
2019-01-24T20:16:14.827Z,59.70
2019-01-24T20:18:47.648Z,55.17
2019-01-24T20:21:18.798Z,61.87
2019-01-24T20:23:50.417Z,57.57
2019-01-24T20:26:27.261Z,56.53
2019-01-24T20:28:58.451Z,61.47
2019-01-24T20:31:29.429Z,57.30
2019-01-24T20:34:00.292Z,59.97
2019-01-24T20:36:31.387Z,61.57
2019-01-24T20:39:07.480Z,59.37
2019-01-24T20:41:37.545Z,57.33
2019-01-24T20:44:09.828Z,58.53
2019-01-24T20:46:40.940Z,58.07
2019-01-24T20:49:12.618Z,56.70
2019-01-24T20:51:46.424Z,56.97
2019-01-24T20:54:17.602Z,54.77
2019-01-24T20:56:48.513Z,57.77
2019-01-24T20:59:20.208Z,61.20
2019-01-24T21:01:50.969Z,59.93
2019-01-24T21:04:21.763Z,56.83
2019-01-24T21:06:52.428Z,54.53
2019-01-24T21:09:26.481Z,56.63
2019-01-24T21:11:57.099Z,57.33
2019-01-24T21:14:28.008Z,57.50
2019-01-24T21:16:59.279Z,60.67
2019-01-24T21:19:29.946Z,60.97
2019-01-24T21:22:01.869Z,59.97
2019-01-24T21:24:32.730Z,56.20
2019-01-24T21:27:03.764Z,58.70
2019-01-24T21:29:35.274Z,58.60
2019-01-24T21:32:06.067Z,58.57
2019-01-24T21:34:37.479Z,57.70
2019-01-24T21:37:12.448Z,61.20
2019-01-24T21:39:43.924Z,57.87
2019-01-24T21:42:14.774Z,56.13
2019-01-24T21:44:45.111Z,59.50
2019-01-24T21:47:16.023Z,60.67
2019-01-24T21:49:46.489Z,56.60
2019-01-24T21:52:18.853Z,58.50
2019-01-24T21:54:49.320Z,57.83
2019-01-24T21:57:19.865Z,60.13
2019-01-24T21:59:50.468Z,61.83
2019-01-24T22:02:21.178Z,56.60
2019-01-24T22:04:51.672Z,62.33
2019-01-24T22:07:22.298Z,57.43
2019-01-24T22:09:53.062Z,62.33
2019-01-24T22:12:23.859Z,61.07
2019-01-24T22:14:54.451Z,59.40
2019-01-24T22:17:25.095Z,60.27
2019-01-24T22:19:55.738Z,62.00
2019-01-24T22:22:29.315Z,63.17
2019-01-24T22:24:59.845Z,60.83
2019-01-24T22:27:30.590Z,57.90
2019-01-24T22:30:01.172Z,58.57
2019-01-24T22:32:31.679Z,58.50
2019-01-24T22:35:02.212Z,59.87
2019-01-24T22:37:32.904Z,62.10
2019-01-24T22:40:03.449Z,62.73
2019-01-24T22:42:33.975Z,62.03
2019-01-24T22:45:05.491Z,61.97
2019-01-24T22:47:36.309Z,58.60
2019-01-24T22:50:08.587Z,61.77
2019-01-24T22:52:39.561Z,63.33
2019-01-24T22:55:11.254Z,59.20
2019-01-24T22:57:41.727Z,63.40
2019-01-24T23:00:35.964Z,59.03
2019-01-24T23:03:07.685Z,60.50
2019-01-24T23:05:38.263Z,56.40
2019-01-24T23:08:08.780Z,58.60
2019-01-24T23:10:39.288Z,61.83
2019-01-24T23:13:09.969Z,62.73
2019-01-24T23:15:40.535Z,64.20
2019-01-24T23:18:10.910Z,60.33
2019-01-24T23:20:41.768Z,60.30
2019-01-24T23:23:12.427Z,62.17
2019-01-24T23:25:42.853Z,57.27
2019-01-24T23:28:13.280Z,57.67
2019-01-24T23:30:43.864Z,60.53
2019-01-24T23:33:14.545Z,62.63
2019-01-24T23:35:45.073Z,61.70
2019-01-24T23:38:15.664Z,63.53
2019-01-24T23:40:46.087Z,59.03
2019-01-24T23:43:16.526Z,60.87
2019-01-24T23:45:47.010Z,61.83
2019-01-24T23:48:17.419Z,64.43
2019-01-24T23:50:48.143Z,59.97
2019-01-24T23:53:19.288Z,63.33
2019-01-24T23:55:49.809Z,59.23
2019-01-24T23:58:20.326Z,65.17
